createdAt,value
2017-02-06T00:00:19.903Z,9.5
2017-02-06T00:01:00.408Z,9.51
2017-02-06T00:01:40.849Z,9.51
2017-02-06T00:02:21.352Z,9.58
2017-02-06T00:03:01.842Z,9.54
2017-02-06T00:03:42.306Z,9.46
2017-02-06T00:04:22.785Z,9.46
2017-02-06T00:05:03.313Z,9.53
2017-02-06T00:05:43.750Z,9.54
2017-02-06T00:06:24.265Z,9.53
2017-02-06T00:07:04.783Z,9.43
2017-02-06T00:07:45.271Z,9.57
2017-02-06T00:08:25.735Z,9.51
2017-02-06T00:09:06.290Z,9.58
2017-02-06T00:09:46.793Z,9.69
2017-02-06T00:10:27.294Z,9.68
2017-02-06T00:11:07.750Z,9.68
2017-02-06T00:11:48.314Z,9.68
2017-02-06T00:12:28.772Z,9.74
2017-02-06T00:13:09.241Z,9.72
2017-02-06T00:13:49.729Z,9.71
2017-02-06T00:14:30.247Z,9.78
2017-02-06T00:15:10.753Z,9.76
2017-02-06T00:15:51.236Z,9.81
2017-02-06T00:16:31.729Z,9.89
2017-02-06T00:17:12.233Z,9.74
2017-02-06T00:17:52.695Z,9.72
2017-02-06T00:18:33.204Z,9.76
2017-02-06T00:19:13.692Z,9.78
2017-02-06T00:19:54.154Z,9.54
2017-02-06T00:20:34.674Z,9.58
2017-02-06T00:21:15.137Z,9.51
2017-02-06T00:21:55.616Z,9.54
2017-02-06T00:22:36.148Z,9.61
2017-02-06T00:23:16.645Z,9.58
2017-02-06T00:23:57.099Z,9.58
2017-02-06T00:24:37.629Z,9.72
2017-02-06T00:25:18.089Z,9.75
2017-02-06T00:25:58.613Z,9.81
2017-02-06T00:26:39.126Z,9.86
2017-02-06T00:27:19.666Z,9.75
2017-02-06T00:28:00.278Z,9.74
2017-02-06T00:28:40.811Z,9.81
2017-02-06T00:29:21.340Z,9.75
2017-02-06T00:30:01.871Z,9.74
2017-02-06T00:30:42.437Z,9.72
2017-02-06T00:31:22.959Z,9.68
2017-02-06T00:32:03.411Z,9.58
2017-02-06T00:32:43.876Z,9.5
2017-02-06T00:33:24.468Z,9.58
2017-02-06T00:34:05.675Z,9.68
2017-02-06T00:34:45.507Z,9.58
2017-02-06T00:35:28.680Z,9.65
2017-02-06T00:36:15.173Z,9.66
2017-02-06T00:36:55.262Z,9.71
2017-02-06T00:37:37.246Z,9.71
2017-02-06T00:38:21.180Z,9.86
2017-02-06T00:39:05.323Z,9.68
2017-02-06T00:39:45.814Z,9.69
2017-02-06T00:40:26.309Z,9.69
2017-02-06T00:41:06.864Z,9.61
2017-02-06T00:41:47.268Z,9.66
2017-02-06T00:42:27.844Z,9.71
2017-02-06T00:43:08.353Z,9.71
2017-02-06T00:43:50.673Z,9.72
2017-02-06T00:44:30.822Z,9.66
2017-02-06T00:45:12.686Z,9.86
2017-02-06T00:45:54.020Z,9.79
2017-02-06T00:46:35.798Z,9.78
2017-02-06T00:47:17.195Z,9.76
2017-02-06T00:47:59.684Z,9.81
2017-02-06T00:48:41.379Z,9.71
2017-02-06T00:49:22.697Z,9.69
2017-02-06T00:50:03.677Z,9.72
2017-02-06T00:50:45.686Z,9.57
2017-02-06T00:51:25.414Z,9.48
2017-02-06T00:52:05.995Z,9.51
2017-02-06T00:52:47.182Z,9.58
2017-02-06T00:53:29.172Z,9.51
2017-02-06T00:54:10.693Z,9.47
2017-02-06T00:54:53.723Z,9.53
2017-02-06T00:55:39.182Z,9.56
2017-02-06T00:56:21.181Z,9.53
2017-02-06T00:57:08.176Z,9.58
2017-02-06T00:57:50.175Z,9.54
2017-02-06T00:58:37.681Z,9.5
2017-02-06T00:59:19.682Z,9.43
2017-02-06T01:00:02.255Z,9.46
2017-02-06T01:00:52.182Z,9.48
2017-02-06T01:01:32.684Z,9.46
2017-02-06T01:02:15.686Z,9.51
2017-02-06T01:02:58.683Z,9.53
2017-02-06T01:03:41.178Z,9.51
2017-02-06T01:04:23.676Z,9.53
2017-02-06T01:09:34.467Z,9.47
2017-02-06T01:11:33.666Z,9.58
2017-02-06T01:15:16.089Z,9.58
2017-02-06T01:15:56.595Z,9.6
2017-02-06T01:16:37.107Z,9.6
2017-02-06T01:17:17.572Z,9.6
2017-02-06T01:17:58.080Z,9.4
2017-02-06T01:18:38.588Z,9.4
2017-02-06T01:19:19.066Z,9.46
2017-02-06T01:19:59.556Z,9.48
2017-02-06T01:20:40.061Z,9.47
2017-02-06T01:21:20.566Z,9.54
2017-02-06T01:22:01.047Z,9.56
2017-02-06T01:22:41.536Z,9.53
2017-02-06T01:23:22.033Z,9.58
2017-02-06T01:24:02.571Z,9.6
2017-02-06T01:24:43.066Z,9.69
2017-02-06T01:25:23.590Z,9.72
2017-02-06T01:26:04.085Z,9.65
2017-02-06T01:27:57.215Z,9.57
2017-02-06T01:28:37.734Z,9.53
2017-02-06T01:29:18.244Z,9.46
2017-02-06T01:29:58.754Z,9.53
2017-02-06T01:30:39.275Z,9.4
2017-02-06T01:31:19.769Z,9.39
2017-02-06T01:32:00.301Z,9.5
2017-02-06T01:32:40.767Z,9.42
2017-02-06T01:33:21.258Z,9.4
2017-02-06T01:34:01.773Z,9.4
2017-02-06T01:34:42.289Z,9.32
2017-02-06T01:35:22.767Z,9.38
2017-02-06T01:36:03.279Z,9.39
2017-02-06T01:36:43.767Z,9.42
2017-02-06T01:37:24.232Z,9.28
2017-02-06T01:38:04.707Z,9.38
2017-02-06T01:38:45.196Z,9.28
2017-02-06T01:39:25.682Z,9.28
2017-02-06T01:40:06.143Z,9.29
2017-02-06T01:40:46.632Z,9.31
2017-02-06T01:41:27.137Z,9.28
2017-02-06T01:42:07.619Z,9.36
2017-02-06T01:42:48.109Z,9.32
2017-02-06T01:43:28.616Z,9.24
2017-02-06T01:44:09.119Z,9.13
2017-02-06T01:44:49.577Z,9.11
2017-02-06T01:45:30.092Z,9.23
2017-02-06T01:46:10.575Z,9.28
2017-02-06T01:46:51.122Z,9.39
2017-02-06T01:47:31.609Z,9.35
2017-02-06T01:48:12.099Z,9.39
2017-02-06T01:48:52.557Z,9.46
2017-02-06T01:49:33.024Z,9.54
2017-02-06T01:50:13.551Z,9.38
2017-02-06T01:50:54.027Z,9.42
2017-02-06T01:51:34.513Z,9.43
2017-02-06T01:52:15.014Z,9.24
2017-02-06T01:52:55.489Z,9.26
2017-02-06T01:53:36.150Z,9.46
2017-02-06T01:54:16.607Z,9.35
2017-02-06T01:54:57.123Z,9.38
2017-02-06T01:55:37.678Z,9.4
2017-02-06T01:56:18.150Z,9.33
2017-02-06T01:56:58.661Z,9.38
2017-02-06T01:57:39.144Z,9.48
2017-02-06T01:58:19.600Z,9.5
2017-02-06T01:59:00.145Z,9.42
2017-02-06T01:59:40.648Z,9.5
2017-02-06T02:00:21.104Z,9.47
2017-02-06T02:01:01.600Z,9.51
2017-02-06T02:01:42.044Z,9.53
2017-02-06T02:02:22.575Z,9.38
2017-02-06T02:03:03.054Z,9.43
2017-02-06T02:03:43.506Z,9.43
2017-02-06T02:04:24.046Z,9.42
2017-02-06T02:05:04.550Z,9.33
2017-02-06T02:05:45.022Z,9.29
2017-02-06T02:06:25.559Z,9.21
2017-02-06T02:07:06.020Z,9.29
2017-02-06T02:07:46.503Z,9.33
2017-02-06T02:08:27.001Z,9.36
2017-02-06T02:09:07.522Z,9.4
2017-02-06T02:09:47.928Z,9.42
2017-02-06T02:10:28.460Z,9.46
2017-02-06T02:11:08.973Z,9.51
2017-02-06T02:11:49.441Z,9.5
2017-02-06T02:12:29.913Z,9.54
2017-02-06T02:13:10.411Z,9.56
2017-02-06T02:13:50.886Z,9.54
2017-02-06T02:14:31.383Z,9.43
2017-02-06T02:15:11.959Z,9.42
2017-02-06T02:15:52.460Z,9.43
2017-02-06T02:16:32.963Z,9.4
2017-02-06T02:17:13.462Z,9.35
2017-02-06T02:17:53.973Z,9.32
2017-02-06T02:18:34.461Z,9.42
2017-02-06T02:19:14.975Z,9.31
2017-02-06T02:19:55.459Z,9.33
2017-02-06T02:20:35.967Z,9.36
2017-02-06T02:21:16.470Z,9.5
2017-02-06T02:21:56.968Z,9.48
2017-02-06T02:22:37.472Z,9.56
2017-02-06T02:23:17.985Z,9.61
2017-02-06T02:23:58.452Z,9.57
2017-02-06T02:24:38.950Z,9.71
2017-02-06T02:25:19.439Z,9.66
2017-02-06T02:25:59.928Z,9.6
2017-02-06T02:26:40.421Z,9.53
2017-02-06T02:27:20.906Z,9.61
2017-02-06T02:28:01.431Z,9.57
2017-02-06T02:28:41.894Z,9.65
2017-02-06T02:29:22.400Z,9.58
2017-02-06T02:30:02.886Z,9.6
2017-02-06T02:30:43.411Z,9.56
2017-02-06T02:31:23.892Z,9.61
2017-02-06T02:32:04.368Z,9.51
2017-02-06T02:32:44.867Z,9.61
2017-02-06T02:33:25.370Z,9.58
2017-02-06T02:34:05.863Z,9.64
2017-02-06T02:34:46.442Z,9.58
2017-02-06T02:35:26.949Z,9.66
2017-02-06T02:36:07.443Z,9.61
2017-02-06T02:36:47.943Z,9.66
2017-02-06T02:37:28.378Z,9.66
2017-02-06T02:38:08.894Z,9.64
2017-02-06T02:38:49.413Z,9.58
2017-02-06T02:39:29.919Z,9.36
2017-02-06T02:40:10.397Z,9.39
2017-02-06T02:40:50.898Z,9.43
2017-02-06T02:41:31.400Z,9.51
2017-02-06T02:42:11.876Z,9.53
2017-02-06T02:42:52.366Z,9.39
2017-02-06T02:43:32.855Z,9.42
2017-02-06T02:44:13.365Z,9.35
2017-02-06T02:44:53.859Z,9.32
2017-02-06T02:45:34.384Z,9.24
2017-02-06T02:46:14.853Z,9.35
2017-02-06T02:46:55.362Z,9.54
2017-02-06T02:47:35.859Z,9.54
2017-02-06T02:48:16.341Z,9.58
2017-02-06T02:48:56.858Z,9.56
2017-02-06T02:49:37.409Z,9.48
2017-02-06T02:50:17.851Z,9.53
2017-02-06T02:50:58.336Z,9.51
2017-02-06T02:51:38.833Z,9.36
2017-02-06T02:52:19.356Z,9.38
2017-02-06T02:52:59.823Z,9.38
2017-02-06T02:53:40.327Z,9.54
2017-02-06T02:54:21.436Z,9.61
2017-02-06T02:55:01.299Z,9.65
2017-02-06T02:55:41.784Z,9.57
2017-02-06T02:56:22.300Z,9.54
2017-02-06T02:57:02.838Z,9.42
2017-02-06T02:57:43.366Z,9.48
2017-02-06T02:58:23.889Z,9.6
2017-02-06T02:59:04.379Z,9.6
2017-02-06T02:59:44.818Z,9.58
2017-02-06T03:00:25.330Z,9.58
2017-02-06T03:01:05.837Z,9.65
2017-02-06T03:01:46.327Z,9.61
2017-02-06T03:02:26.819Z,9.74
2017-02-06T03:03:07.304Z,9.58
2017-02-06T03:03:47.819Z,9.58
2017-02-06T03:04:28.307Z,9.65
2017-02-06T03:05:08.779Z,9.58
2017-02-06T03:05:49.243Z,9.57
2017-02-06T03:06:29.738Z,9.61
2017-02-06T03:07:10.219Z,9.64
2017-02-06T03:07:50.714Z,9.65
2017-02-06T03:08:31.212Z,9.57
2017-02-06T03:09:11.720Z,9.74
2017-02-06T03:09:52.204Z,9.72
2017-02-06T03:10:32.710Z,9.66
2017-02-06T03:11:13.204Z,9.66
2017-02-06T03:11:53.678Z,9.78
2017-02-06T03:12:34.148Z,9.68
2017-02-06T03:13:14.620Z,9.71
2017-02-06T03:13:55.109Z,9.68
2017-02-06T03:14:35.641Z,9.74
2017-02-06T03:15:16.273Z,9.78
2017-02-06T03:15:56.840Z,9.74
2017-02-06T03:16:37.269Z,9.71
2017-02-06T03:17:17.778Z,9.71
2017-02-06T03:17:58.252Z,9.69
2017-02-06T03:18:38.749Z,9.71
2017-02-06T03:19:19.310Z,9.71
2017-02-06T03:19:59.845Z,9.74
2017-02-06T03:20:40.295Z,9.78
2017-02-06T03:21:20.785Z,9.72
2017-02-06T03:22:01.281Z,9.69
2017-02-06T03:22:41.761Z,9.68
2017-02-06T03:23:22.247Z,9.69
2017-02-06T03:24:02.759Z,9.71
2017-02-06T03:24:43.237Z,9.58
2017-02-06T03:25:23.669Z,9.6
2017-02-06T03:26:04.178Z,9.56
2017-02-06T03:26:44.668Z,9.51
2017-02-06T03:27:25.188Z,9.56
2017-02-06T03:28:05.671Z,9.47
2017-02-06T03:28:46.167Z,9.39
2017-02-06T03:29:26.662Z,9.33
2017-02-06T03:30:07.146Z,9.4
2017-02-06T03:30:47.659Z,9.5
2017-02-06T03:31:28.112Z,9.51
2017-02-06T03:32:08.631Z,9.54
2017-02-06T03:32:49.153Z,9.28
2017-02-06T03:33:29.611Z,9.28
2017-02-06T03:34:10.103Z,9.39
2017-02-06T03:34:50.650Z,9.42
2017-02-06T03:35:31.090Z,9.23
2017-02-06T03:36:15.526Z,9.33
2017-02-06T03:36:56.009Z,9.29
2017-02-06T03:37:40.274Z,9.21
2017-02-06T03:38:20.782Z,9.18
2017-02-06T03:39:01.284Z,9.17
2017-02-06T03:39:41.786Z,9.24
2017-02-06T03:40:22.263Z,9.17
2017-02-06T03:41:02.797Z,9.28
2017-02-06T03:41:43.283Z,9.29
2017-02-06T03:42:23.806Z,9.26
2017-02-06T03:43:04.282Z,9.28
2017-02-06T03:43:44.798Z,9.24
2017-02-06T03:44:25.295Z,9.32
2017-02-06T03:45:05.752Z,9.24
2017-02-06T03:45:46.259Z,9.24
2017-02-06T03:46:26.749Z,9.2
2017-02-06T03:47:07.263Z,9.29
2017-02-06T03:47:47.762Z,9.38
2017-02-06T03:48:33.109Z,9.39
2017-02-06T03:49:13.590Z,9.46
2017-02-06T03:49:54.083Z,9.5
2017-02-06T03:50:34.615Z,9.39
2017-02-06T03:51:15.105Z,9.33
2017-02-06T03:51:55.583Z,9.33
2017-02-06T03:52:36.066Z,9.4
2017-02-06T03:53:16.598Z,9.38
2017-02-06T03:53:57.057Z,9.38
2017-02-06T03:54:37.569Z,9.43
2017-02-06T03:55:18.050Z,9.53
2017-02-06T03:55:58.562Z,9.51
2017-02-06T03:56:39.031Z,9.47
2017-02-06T03:57:19.536Z,9.32
2017-02-06T03:58:00.059Z,9.39
2017-02-06T03:58:40.550Z,9.26
2017-02-06T03:59:21.047Z,9.36
2017-02-06T04:00:01.551Z,9.33
2017-02-06T04:00:42.042Z,9.33
2017-02-06T04:01:22.483Z,9.31
2017-02-06T04:02:03.005Z,9.4
2017-02-06T04:02:43.496Z,9.4
2017-02-06T04:03:23.956Z,9.39
2017-02-06T04:04:04.487Z,9.48
2017-02-06T04:04:44.986Z,9.38
2017-02-06T04:05:25.477Z,9.42
2017-02-06T04:06:05.951Z,9.48
2017-02-06T04:06:46.442Z,9.51
2017-02-06T04:07:26.936Z,9.43
2017-02-06T04:08:07.447Z,9.38
2017-02-06T04:08:47.935Z,9.28
2017-02-06T04:09:28.453Z,9.33
2017-02-06T04:10:08.901Z,9.43
2017-02-06T04:10:49.390Z,9.47
2017-02-06T04:11:29.907Z,9.4
2017-02-06T04:12:10.392Z,9.39
2017-02-06T04:12:50.867Z,9.46
2017-02-06T04:13:31.431Z,9.53
2017-02-06T04:14:11.928Z,9.46
2017-02-06T04:14:52.411Z,9.43
2017-02-06T04:15:32.927Z,9.39
2017-02-06T04:16:13.412Z,9.43
2017-02-06T04:16:53.900Z,9.36
2017-02-06T04:17:34.428Z,9.23
2017-02-06T04:18:14.921Z,9.21
2017-02-06T04:18:55.352Z,9.24
2017-02-06T04:19:35.851Z,9.18
2017-02-06T04:20:16.351Z,9.17
2017-02-06T04:20:56.869Z,9.08
2017-02-06T04:21:37.334Z,9.26
2017-02-06T04:22:17.846Z,9.38
2017-02-06T04:22:58.336Z,9.46
2017-02-06T04:23:38.828Z,9.38
2017-02-06T04:24:19.342Z,9.47
2017-02-06T04:24:59.836Z,9.48
2017-02-06T04:25:40.352Z,9.35
2017-02-06T04:26:20.843Z,9.29
2017-02-06T04:27:01.389Z,9.38
2017-02-06T04:27:42.009Z,9.4
2017-02-06T04:28:22.544Z,9.47
2017-02-06T04:29:02.985Z,9.56
2017-02-06T04:29:43.494Z,9.57
2017-02-06T04:30:24.017Z,9.57
2017-02-06T04:31:04.533Z,9.51
2017-02-06T04:31:44.988Z,9.5
2017-02-06T04:32:25.503Z,9.36
2017-02-06T04:33:06.012Z,9.36
2017-02-06T04:33:46.501Z,9.31
2017-02-06T04:34:26.939Z,9.28
2017-02-06T04:35:07.436Z,9.28
2017-02-06T04:35:47.928Z,9.28
2017-02-06T04:36:28.395Z,9.24
2017-02-06T04:37:08.930Z,9.28
2017-02-06T04:37:49.521Z,9.08
2017-02-06T04:38:29.932Z,9.13
2017-02-06T04:39:10.389Z,9.14
2017-02-06T04:39:50.910Z,9.26
2017-02-06T04:40:31.395Z,9.23
2017-02-06T04:41:11.941Z,9.29
2017-02-06T04:41:52.382Z,9.17
2017-02-06T04:42:32.852Z,9.23
2017-02-06T04:43:13.367Z,9.15
2017-02-06T04:43:53.873Z,9.13
2017-02-06T04:44:34.389Z,9.13
2017-02-06T04:45:14.863Z,9.26
2017-02-06T04:45:55.353Z,9.14
2017-02-06T04:46:35.858Z,9.14
2017-02-06T04:47:16.318Z,9.05
2017-02-06T04:47:56.823Z,9.1
2017-02-06T04:48:37.327Z,9.15
2017-02-06T04:49:17.855Z,9.14
2017-02-06T04:49:58.345Z,9.24
2017-02-06T04:50:38.849Z,9.24
2017-02-06T04:51:19.339Z,9.36
2017-02-06T04:51:59.866Z,9.38
2017-02-06T04:52:40.292Z,9.38
2017-02-06T04:53:20.784Z,9.43
2017-02-06T04:54:01.267Z,9.43
2017-02-06T04:54:41.787Z,9.18
2017-02-06T04:55:22.306Z,9.05
2017-02-06T04:56:02.811Z,9.1
2017-02-06T04:56:43.285Z,9.15
2017-02-06T04:57:23.762Z,9.11
2017-02-06T04:58:04.404Z,9.28
2017-02-06T04:58:44.912Z,9.24
2017-02-06T04:59:27.489Z,9.24
2017-02-06T05:00:07.560Z,9.23
2017-02-06T05:00:48.077Z,9.18
2017-02-06T05:01:28.549Z,9.29
2017-02-06T05:02:09.095Z,9.36
2017-02-06T05:02:49.532Z,9.33
2017-02-06T05:03:30.044Z,9.33
2017-02-06T05:04:10.570Z,9.26
2017-02-06T05:04:51.083Z,9.4
2017-02-06T05:05:32.134Z,9.33
2017-02-06T05:06:12.641Z,9.28
2017-02-06T05:06:53.137Z,9.14
2017-02-06T05:07:33.643Z,9.1
2017-02-06T05:08:14.198Z,9.1
2017-02-06T05:08:54.719Z,9.1
2017-02-06T05:09:35.145Z,9.18
2017-02-06T05:10:15.645Z,9.14
2017-02-06T05:10:56.180Z,9.02
2017-02-06T05:11:36.655Z,8.95
2017-02-06T05:12:17.628Z,8.98
2017-02-06T05:12:59.009Z,9.13
2017-02-06T05:13:39.495Z,9.14
2017-02-06T05:14:19.240Z,9.02
2017-02-06T05:14:59.684Z,8.96
2017-02-06T05:15:41.000Z,8.99
2017-02-06T05:16:20.680Z,8.87
2017-02-06T05:17:01.184Z,8.91
2017-02-06T05:17:41.658Z,8.83
2017-02-06T05:18:22.998Z,8.77
2017-02-06T05:19:02.810Z,8.98
2017-02-06T05:19:44.128Z,8.98
2017-02-06T05:20:24.638Z,9.04
2017-02-06T05:21:06.998Z,9.1
2017-02-06T05:21:46.334Z,9.13
2017-02-06T05:23:46.582Z,9.14
2017-02-06T05:24:27.078Z,9.26
2017-02-06T05:25:06.866Z,9.14
2017-02-06T05:25:47.359Z,9.28
2017-02-06T05:26:30.077Z,9.23
2017-02-06T05:27:09.669Z,9.33
2017-02-06T05:27:50.141Z,9.29
2017-02-06T05:28:30.644Z,9.36
2017-02-06T05:29:11.136Z,9.23
2017-02-06T05:29:51.698Z,9.26
2017-02-06T05:30:32.221Z,9.17
2017-02-06T05:31:14.083Z,9.21
2017-02-06T05:31:54.588Z,9.26
2017-02-06T05:32:34.275Z,9.28
2017-02-06T05:33:14.759Z,9.35
2017-02-06T05:33:56.579Z,9.38
2017-02-06T05:34:35.959Z,9.36
2017-02-06T05:35:16.740Z,9.32
2017-02-06T05:35:58.142Z,9.36
2017-02-06T05:36:39.580Z,9.28
2017-02-06T05:37:20.103Z,9.28
2017-02-06T05:37:59.656Z,9.35
2017-02-06T05:38:40.245Z,9.23
2017-02-06T05:39:21.578Z,9.23
2017-02-06T05:40:02.080Z,9.24
2017-02-06T05:40:43.079Z,9.43
2017-02-06T05:41:25.579Z,9.33
2017-02-06T05:42:06.090Z,9.31
2017-02-06T05:42:47.099Z,8.94
2017-02-06T05:43:28.579Z,9.08
2017-02-06T05:44:10.612Z,9.14
2017-02-06T05:44:51.591Z,9.24
2017-02-06T05:45:34.080Z,9.11
2017-02-06T05:46:15.587Z,9.13
2017-02-06T05:46:54.382Z,9.14
2017-02-06T05:47:40.591Z,9.1
2017-02-06T05:48:19.590Z,9.15
2017-02-06T05:48:59.615Z,9.17
2017-02-06T05:49:39.340Z,9.13
2017-02-06T05:50:20.584Z,9.29
2017-02-06T05:51:00.319Z,9.36
2017-02-06T05:51:41.549Z,9.21
2017-02-06T05:52:22.022Z,9.32
2017-02-06T05:53:03.106Z,9.33
2017-02-06T05:53:44.508Z,9.23
2017-02-06T05:54:25.586Z,9.14
2017-02-06T05:55:07.582Z,9.14
2017-02-06T05:55:48.090Z,9.21
2017-02-06T05:56:31.091Z,9.14
2017-02-06T05:57:14.604Z,9.1
2017-02-06T05:57:54.819Z,9.1
2017-02-06T05:58:43.095Z,9.28
2017-02-06T05:59:26.092Z,9.28
2017-02-06T06:00:05.626Z,9.28
2017-02-06T06:00:46.118Z,9.08
2017-02-06T06:01:26.620Z,9.2
2017-02-06T06:02:07.134Z,9.14
2017-02-06T06:02:47.627Z,9.1
2017-02-06T06:03:28.148Z,9.23
2017-02-06T06:04:08.633Z,9.1
2017-02-06T06:04:49.182Z,9.28
2017-02-06T06:05:29.648Z,9.23
2017-02-06T06:06:10.156Z,9.35
2017-02-06T06:06:50.674Z,9.31
2017-02-06T06:07:31.169Z,9.31
2017-02-06T06:08:11.665Z,9.31
2017-02-06T06:08:52.148Z,9.26
2017-02-06T06:09:32.682Z,9.28
2017-02-06T06:10:13.212Z,9.29
2017-02-06T06:10:53.692Z,9.33
2017-02-06T06:11:34.207Z,9.39
2017-02-06T06:12:14.680Z,9.39
2017-02-06T06:12:55.204Z,9.38
2017-02-06T06:13:35.628Z,9.38
2017-02-06T06:14:16.128Z,9.46
2017-02-06T06:14:56.661Z,9.32
2017-02-06T06:15:37.111Z,9.11
2017-02-06T06:16:17.635Z,9.15
2017-02-06T06:16:58.154Z,9.08
2017-02-06T06:17:38.614Z,9.13
2017-02-06T06:18:19.177Z,9.14
2017-02-06T06:18:59.753Z,9.15
2017-02-06T06:19:40.219Z,9.14
2017-02-06T06:20:20.712Z,9.13
2017-02-06T06:21:01.215Z,9.08
2017-02-06T06:21:41.717Z,9.1
2017-02-06T06:22:22.867Z,9.15
2017-02-06T06:23:03.936Z,9.18
2017-02-06T06:23:46.107Z,9.15
2017-02-06T06:24:25.795Z,9.01
2017-02-06T06:25:06.235Z,9.14
2017-02-06T06:25:46.749Z,9.11
2017-02-06T06:26:27.248Z,9.14
2017-02-06T06:27:07.773Z,9.24
2017-02-06T06:27:49.108Z,9.11
2017-02-06T06:28:28.834Z,9.14
2017-02-06T06:29:09.314Z,9.02
2017-02-06T06:29:49.827Z,8.95
2017-02-06T06:30:30.294Z,9.14
2017-02-06T06:31:10.798Z,9.11
2017-02-06T06:31:52.101Z,9.1
2017-02-06T06:32:31.861Z,9.23
2017-02-06T06:33:12.347Z,9.24
2017-02-06T06:33:52.872Z,9.33
2017-02-06T06:34:33.372Z,9.36
2017-02-06T06:35:13.872Z,9.4
2017-02-06T06:35:54.365Z,9.33
2017-02-06T06:36:34.819Z,9.21
2017-02-06T06:37:16.595Z,9.21
2017-02-06T06:37:57.196Z,9.33
2017-02-06T06:38:38.173Z,9.24
2017-02-06T06:39:21.105Z,9.08
2017-02-06T06:40:00.633Z,9.13
2017-02-06T06:40:41.712Z,9.26
2017-02-06T06:41:22.904Z,9.21
2017-02-06T06:42:03.365Z,9.13
2017-02-06T06:42:43.859Z,9.26
2017-02-06T06:43:24.294Z,9.01
2017-02-06T06:44:06.104Z,8.95
2017-02-06T06:44:46.699Z,9.04
2017-02-06T06:45:27.130Z,8.99
2017-02-06T06:46:07.648Z,8.95
2017-02-06T06:46:48.123Z,9.08
2017-02-06T06:47:28.647Z,9.36
2017-02-06T06:48:09.146Z,9.5
2017-02-06T06:48:50.470Z,9.5
2017-02-06T06:49:30.968Z,9.39
2017-02-06T06:50:12.912Z,9.42
2017-02-06T06:50:56.865Z,9.24
2017-02-06T06:51:37.419Z,9.28
2017-02-06T06:52:17.885Z,9.1
2017-02-06T06:52:58.390Z,9.02
2017-02-06T06:53:38.905Z,9.05
2017-02-06T06:54:19.409Z,9.08
2017-02-06T06:55:00.835Z,8.91
2017-02-06T06:55:42.607Z,8.92
2017-02-06T06:56:21.852Z,9.08
2017-02-06T06:57:02.344Z,9.1
2017-02-06T06:57:42.807Z,9.1
2017-02-06T06:58:24.882Z,9.04
2017-02-06T06:59:06.108Z,9.1
2017-02-06T06:59:47.105Z,9.1
2017-02-06T07:00:28.911Z,9.1
2017-02-06T07:01:10.621Z,9.08
2017-02-06T07:01:51.618Z,9.01
2017-02-06T07:02:33.632Z,8.98
2017-02-06T07:03:14.130Z,9.01
2017-02-06T07:03:54.659Z,9.08
2017-02-06T07:04:35.169Z,8.94
2017-02-06T07:05:16.335Z,8.96
2017-02-06T07:05:58.110Z,8.91
2017-02-06T07:06:37.496Z,8.96
2017-02-06T07:07:18.870Z,8.99
2017-02-06T07:08:00.612Z,9.14
2017-02-06T07:08:41.114Z,9.17
2017-02-06T07:09:23.118Z,8.98
2017-02-06T07:10:04.169Z,9.08
2017-02-06T07:10:45.611Z,9.1
2017-02-06T07:11:26.745Z,8.95
2017-02-06T07:12:08.611Z,9.05
2017-02-06T07:12:47.735Z,9.02
2017-02-06T07:13:30.612Z,9.1
2017-02-06T07:14:15.612Z,9.11
2017-02-06T07:14:57.116Z,8.94
2017-02-06T07:15:38.948Z,9.04
2017-02-06T07:16:19.436Z,8.99
2017-02-06T07:17:00.915Z,9.01
2017-02-06T07:17:42.797Z,9.02
2017-02-06T07:18:41.175Z,8.98
2017-02-06T07:19:23.614Z,9.24
2017-02-06T07:20:04.123Z,9.17
2017-02-06T07:20:44.615Z,9.39
2017-02-06T07:21:27.639Z,9.54
2017-02-06T07:22:09.708Z,9.64
2017-02-06T07:22:50.127Z,9.47
2017-02-06T07:23:32.629Z,9.51
2017-02-06T07:24:14.606Z,9.39
2017-02-06T07:24:57.646Z,9.71
2017-02-06T07:25:38.614Z,9.68
2017-02-06T07:26:25.114Z,9.65
2017-02-06T07:27:07.618Z,9.38
2017-02-06T07:27:48.121Z,9.24
2017-02-06T07:28:31.611Z,9.54
2017-02-06T07:29:12.993Z,9.58
2017-02-06T07:29:55.617Z,9.54
2017-02-06T07:30:40.111Z,9.36
2017-02-06T07:31:22.122Z,9.36
2017-02-06T07:32:04.659Z,9.4
2017-02-06T07:32:59.612Z,9.51
2017-02-06T07:33:40.407Z,9.48
2017-02-06T07:34:22.118Z,9.53
2017-02-06T07:35:05.117Z,9.42
2017-02-06T07:35:45.118Z,9.6
2017-02-06T07:36:26.649Z,9.61
2017-02-06T07:37:09.110Z,9.74
2017-02-06T07:37:51.120Z,9.74
2017-02-06T07:38:33.800Z,9.87
2017-02-06T07:39:16.113Z,9.81
2017-02-06T07:40:01.854Z,9.74
2017-02-06T07:40:45.124Z,9.83
2017-02-06T07:41:26.623Z,9.66
2017-02-06T07:42:07.123Z,9.74
2017-02-06T07:42:49.207Z,9.74
2017-02-06T07:43:30.114Z,9.78
2017-02-06T07:44:11.658Z,9.57
2017-02-06T07:44:56.615Z,9.58
2017-02-06T07:45:39.128Z,9.53
2017-02-06T07:46:25.125Z,9.36
2017-02-06T07:47:09.615Z,9.36
2017-02-06T07:47:53.625Z,9.38
2017-02-06T07:48:37.128Z,9.48
2017-02-06T07:49:20.619Z,9.36
2017-02-06T07:50:05.620Z,9.26
2017-02-06T07:50:54.116Z,9.39
2017-02-06T07:51:42.124Z,9.51
2017-02-06T07:52:27.623Z,9.58
2017-02-06T07:53:09.625Z,9.58
2017-02-06T07:53:59.122Z,9.53
2017-02-06T07:54:50.124Z,9.58
2017-02-06T07:55:31.129Z,9.61
2017-02-06T07:56:15.694Z,9.6
2017-02-06T07:57:01.636Z,9.69
2017-02-06T07:57:46.617Z,9.64
2017-02-06T07:58:27.639Z,9.61
2017-02-06T07:59:14.138Z,9.64
2017-02-06T07:59:59.620Z,9.75
2017-02-06T08:00:45.630Z,9.76
2017-02-06T08:01:31.667Z,9.78
2017-02-06T08:02:22.127Z,9.78
2017-02-06T08:03:10.618Z,9.76
2017-02-06T08:03:51.625Z,9.83
2017-02-06T08:04:36.132Z,9.94
2017-02-06T08:05:17.677Z,9.87
2017-02-06T08:06:08.640Z,9.99
2017-02-06T08:06:54.132Z,10.01
2017-02-06T08:07:43.622Z,9.96
2017-02-06T08:08:29.123Z,9.71
2017-02-06T08:09:12.127Z,9.81
2017-02-06T08:10:01.129Z,9.9
2017-02-06T08:11:00.141Z,10.11
2017-02-06T08:11:50.131Z,10.29
2017-02-06T08:12:32.622Z,10.25
2017-02-06T08:13:15.642Z,10.4
2017-02-06T08:14:02.130Z,10.44
2017-02-06T08:14:52.678Z,10.34
2017-02-06T08:15:43.630Z,10.38
2017-02-06T08:16:26.626Z,10.36
2017-02-06T08:18:36.696Z,10.01
2017-02-06T08:19:21.213Z,9.83
2017-02-06T08:20:10.196Z,9.94
2017-02-06T08:21:01.182Z,10.01
2017-02-06T08:22:53.292Z,10.47
2017-02-06T08:23:42.306Z,10.17
2017-02-06T08:25:55.389Z,10.51
2017-02-06T08:28:19.080Z,10.52
2017-02-06T08:29:03.573Z,10.41
2017-02-06T08:29:49.106Z,10.25
2017-02-06T08:30:31.567Z,10.29
2017-02-06T08:31:13.074Z,10.15
2017-02-06T08:31:53.076Z,10.29
2017-02-06T08:32:36.569Z,10.15
2017-02-06T08:33:16.583Z,10.07
2017-02-06T08:34:01.126Z,10.04
2017-02-06T08:34:41.575Z,10.22
2017-02-06T08:35:24.572Z,10.17
2017-02-06T08:36:06.610Z,10.15
2017-02-06T08:36:49.077Z,10.04
2017-02-06T08:37:40.577Z,10.09
2017-02-06T08:38:26.939Z,10.09
2017-02-06T08:39:06.577Z,10.17
2017-02-06T08:39:51.575Z,9.97
2017-02-06T08:40:38.571Z,10.18
2017-02-06T08:41:28.086Z,10.25
2017-02-06T08:42:14.075Z,10.33
2017-02-06T08:43:01.569Z,10.47
2017-02-06T08:43:44.070Z,10.55
2017-02-06T08:45:48.718Z,10.71
2017-02-06T08:46:32.720Z,10.68
2017-02-06T08:47:22.218Z,10.84
2017-02-06T08:49:16.825Z,11
2017-02-06T08:51:21.315Z,10.94
2017-02-06T08:53:33.940Z,10.51
2017-02-06T08:54:21.442Z,10.63
2017-02-06T08:55:07.947Z,10.68
2017-02-06T08:55:56.497Z,10.59
2017-02-06T08:57:05.471Z,10.51
2017-02-06T08:58:58.004Z,10.38
2017-02-06T08:59:47.030Z,10.38
2017-02-06T09:00:36.018Z,10.52
2017-02-06T09:02:08.604Z,10.82
2017-02-06T09:03:02.564Z,10.71
2017-02-06T09:04:49.681Z,10.64
2017-02-06T09:06:28.665Z,10.85
2017-02-06T09:08:29.969Z,11.07
2017-02-06T09:09:10.475Z,11.03
2017-02-06T09:09:50.965Z,11.19
2017-02-06T09:10:31.449Z,11.21
2017-02-06T09:11:11.984Z,10.99
2017-02-06T09:11:52.496Z,10.96
2017-02-06T09:12:32.991Z,10.96
2017-02-06T09:13:13.453Z,11.04
2017-02-06T09:13:53.979Z,11.11
2017-02-06T09:14:34.454Z,11
2017-02-06T09:15:14.973Z,11.07
2017-02-06T09:15:55.477Z,11.09
2017-02-06T09:16:35.994Z,11.18
2017-02-06T09:17:16.504Z,11.24
2017-02-06T09:17:56.967Z,11.14
2017-02-06T09:18:37.421Z,11.18
2017-02-06T09:19:18.051Z,11.36
2017-02-06T09:19:58.417Z,11.35
2017-02-06T09:20:38.988Z,11.17
2017-02-06T09:21:19.486Z,11.25
2017-02-06T09:21:59.979Z,11.21
2017-02-06T09:22:40.489Z,11.42
2017-02-06T09:23:20.888Z,11.47
2017-02-06T09:24:01.382Z,11.57
2017-02-06T09:24:41.910Z,11.55
2017-02-06T09:25:22.407Z,11.55
2017-02-06T09:26:02.955Z,11.57
2017-02-06T09:26:43.325Z,11.54
2017-02-06T09:27:24.008Z,11.51
2017-02-06T09:28:04.527Z,11.49
2017-02-06T09:28:45.020Z,11.42
2017-02-06T09:29:25.495Z,11.46
2017-02-06T09:30:06.181Z,11.46
2017-02-06T09:30:46.635Z,11.58
2017-02-06T09:31:27.139Z,11.55
2017-02-06T09:32:07.658Z,11.6
2017-02-06T09:32:48.098Z,11.69
2017-02-06T09:33:28.606Z,11.75
2017-02-06T09:34:09.140Z,11.9
2017-02-06T09:34:49.595Z,11.98
2017-02-06T09:35:30.130Z,12.02
2017-02-06T09:36:10.605Z,12.01
2017-02-06T09:36:51.154Z,12.16
2017-02-06T09:37:31.643Z,12.07
2017-02-06T09:38:12.115Z,12.27